ADDS METAR Data INFO
IDs: Format: Raw Decoded Include TAF

Data at: 2223 UTC 24 Jun 2018

KRWI 242153Z AUTO 21006KT 10SM CLR 33/23 A2989 RMK AO2 SLP118 T03280228
KRWI 242053Z AUTO VRB03KT 10SM BKN060 31/23 A2989 RMK AO2 TSB06E21 SLP119 T03060233 56011
KRWI 242027Z AUTO VRB06KT 10SM BKN070 33/22 A2988 RMK AO2 TSB06E21 T03280222
KRWI 242012Z AUTO 26007KT 10SM TS BKN070 BKN120 34/22 A2989 RMK AO2 TSB06 T03390217
KRWI 241953Z AUTO 21009KT 10SM FEW060 FEW120 35/22 A2989 RMK AO2 SLP120 T03500222
KRWI 241853Z AUTO 25010KT 10SM FEW055 34/22 A2990 RMK AO2 LTG DSNT S SLP122 T03440222
KRWI 241753Z AUTO 24009KT 10SM FEW060 34/22 A2992 RMK AO2 SLP130 T03390222 10339 20256 57007
KRWI 241653Z AUTO 22007KT 10SM CLR 33/22 A2993 RMK AO2 SLP132 T03330217
KRWI 241553Z AUTO 23008KT 10SM CLR 32/21 A2994 RMK AO2 SLP136 T03220211
KRWI 241453Z AUTO VRB06KT 10SM CLR 31/21 A2994 RMK AO2 SLP137 T03060211 50003
KRWI 241353Z AUTO 26009KT 10SM CLR 29/21 A2994 RMK AO2 SLP138 T02890211
KRWI 241253Z AUTO 26008G16KT 10SM CLR 27/21 A2994 RMK AO2 SLP137 T02720211
KRWI 241153Z AUTO 24007KT 10SM CLR 26/22 A2993 RMK AO2 SLP134 T02560217 10256 20222 53017
KRWI 241053Z AUTO 20004KT 10SM CLR 23/22 A2990 RMK AO2 SLP124 T02330217
KRWI 240953Z AUTO 00000KT 10SM CLR 23/21 A2989 RMK AO2 SLP121 T02280211
KRWI 240853Z AUTO 19003KT 10SM CLR 23/21 A2988 RMK AO2 SLP116 T02280206 58002
KRWI 240753Z AUTO 19003KT 10SM CLR 23/21 A2988 RMK AO2 SLP117 T02330211
KRWI 240653Z AUTO 20005KT 10SM CLR 24/22 A2989 RMK AO2 SLP118 T02390222
KRWI 240553Z AUTO 20003KT 10SM CLR 24/22 A2989 RMK AO2 SLP118 T02390222 10300 20233 51004
KRWI 240453Z AUTO 17003KT 10SM CLR 24/23 A2989 RMK AO2 SLP118 T02440228 403330222
KRWI 240353Z AUTO 13004KT 10SM CLR 24/23 A2988 RMK AO2 SLP117 T02440228
KRWI 240253Z AUTO 00000KT 10SM CLR 24/23 A2987 RMK AO2 SLP114 T02390228 53018
KRWI 240153Z AUTO 00000KT 10SM CLR 25/23 A2985 RMK AO2 SLP107 T02500233
KRWI 240053Z AUTO 00000KT 10SM CLR 26/24 A2983 RMK AO2 SLP099 T02560239
KRWI 232353Z AUTO 23005KT 10SM CLR 30/22 A2982 RMK AO2 SLP096 60000 T03000222 10333 20300 51006
KRWI 232253Z AUTO 22005KT 10SM CLR 32/22 A2982 RMK AO2 SLP095 T03170222
KRWI 232153Z AUTO 21006KT 10SM FEW060 FEW120 31/22 A2981 RMK AO2 RAB25E36 SLP093 P0000 T03060222
KRWI 232053Z AUTO 21014G20KT 10SM FEW110 33/23 A2980 RMK AO2 LTG DSNT N AND NE SLP089 T03280228 56016
KRWI 231953Z AUTO 22012G20KT 10SM CLR 33/23 A2980 RMK AO2 SLP090 T03280228
KRWI 231853Z AUTO 19014G23KT 10SM FEW045 32/23 A2982 RMK AO2 LTG DSNT SE SLP097 T03220228
KRWI 231753Z AUTO 22009KT 10SM FEW047 FEW100 SCT120 32/23 A2985 RMK AO2 SLP105 T03170233 10322 20256 58008
KRWI 231653Z AUTO 21008G18KT 10SM CLR 31/22 A2986 RMK AO2 SLP109 T03060222
KRWI 231553Z AUTO 21010KT 10SM CLR 31/23 A2986 RMK AO2 SLP110 T03060228
KRWI 231453Z AUTO 22010KT 10SM CLR 30/22 A2987 RMK AO2 SLP114 T03000217 50003
KRWI 231353Z AUTO 22008KT 10SM CLR 28/22 A2987 RMK AO2 SLP114 T02830222
KRWI 231253Z AUTO 23006KT 10SM CLR 27/23 A2988 RMK AO2 SLP116 T02720228
KRWI 231153Z AUTO 22006KT 10SM CLR 26/23 A2986 RMK AO2 SLP110 70027 T02610233 10261 20233 53013
KRWI 231053Z AUTO 20005KT 7SM CLR 25/24 A2985 RMK AO2 SLP106 T02500239